Shawnee, OK

9:29 AM CDT on May 27, 2017 (GMT -0500)
Shawnee Municipal

Weather History for KSNL - February, 2014

Change the Weather History Date:

Wednesday, February 19, 2014

  Actual Average (KTIK) Record (KTIK)
Temperature  
Mean Temperature 56 °F -  
Max Temperature 64 °F 52 °F 75 °F (2016)
Min Temperature 48 °F 33 °F 15 °F (2006)
Degree Days  
Heating Degree Days 9    
Growing Degree Days 6 (Base 50)    
Moisture  
Dew Point 49 °F    
Average Humidity 74    
Maximum Humidity 100    
Minimum Humidity 39    
Precipitation  
Precipitation 0.00 in - - ()
Sea Level Pressure  
Sea Level Pressure 29.81 in    
Wind  
Wind Speed 8 mph (SE)    
Max Wind Speed 14 mph    
Max Gust Speed 22 mph    
Visibility 7 miles    
Events Rain    
Averages and records for this station are not official NWS values.
T = Trace of Precipitation, MM = Missing Value Source: NWS Daily Summary

Daily Weather History Graph

Daily Weather History Graph

Search for Another Location

Airport or City:

Trip Planner

Search our weather history database for the weather conditions in past years. The results will help you decide how hot, cold, wet, or windy it might be!

Date:

Astronomy

Feb. 19, 2014 Rise Set
Actual Time 7:09 AM CST 6:13 PM CST
Civil Twilight 6:43 AM CST 6:39 PM CST
Nautical Twilight 6:14 AM CST 7:09 PM CST
Astronomical Twilight 5:44 AM CST 7:39 PM CST
Moon 10:56 PM CST (2/19) 9:27 AM CST (2/19)
Length of Visible Light 11h 56m
Length of Day
11h 04m
Waning Gibbous, 79% of the Moon is Illuminated
Feb 19
Waning Gibbous
Feb 22
Last Quarter
Mar 1
New
Mar 8
First Quarter
Mar 16
Full

Hourly Weather History & Observations

Time (CST) Temp. Dew Point Humidity Pressure Visibility Wind Dir Wind Speed Gust Speed Precip Events Conditions
12:15 AM 53.6 °F 37.4 °F 54% 29.95 in 10.0 mi NNE 3.5 mph - N/A   Clear
12:35 AM 53.6 °F 37.4 °F 54% 29.96 in 10.0 mi North 5.8 mph - N/A   Clear
12:55 AM 53.6 °F 37.4 °F 54% 29.97 in 10.0 mi NNE 5.8 mph - N/A   Clear
1:15 AM 51.8 °F 35.6 °F 54% 29.97 in 10.0 mi NNE 8.1 mph - N/A   Clear
1:35 AM 53.6 °F 35.6 °F 51% 29.98 in 10.0 mi NNE 6.9 mph - N/A   Clear
1:55 AM 51.8 °F 33.8 °F 50% 29.98 in 10.0 mi NNE 5.8 mph - N/A   Clear
2:15 AM 51.8 °F 33.8 °F 50% 29.98 in 10.0 mi NNE 4.6 mph - N/A   Clear
2:35 AM 50.0 °F 33.8 °F 54% 29.98 in 10.0 mi NNE 5.8 mph - N/A   Clear
2:55 AM 48.2 °F 33.8 °F 58% 29.98 in 10.0 mi NNE 4.6 mph - N/A   Clear
3:15 AM 51.8 °F 33.8 °F 50% 29.98 in 10.0 mi NE 5.8 mph - N/A   Clear
3:35 AM 51.8 °F 33.8 °F 50% 29.98 in 10.0 mi NE 5.8 mph - N/A   Clear
3:55 AM 51.8 °F 33.8 °F 50% 29.97 in 10.0 mi NE 5.8 mph - N/A   Clear
4:15 AM 51.8 °F 33.8 °F 50% 29.95 in 10.0 mi ENE 6.9 mph - N/A   Clear
4:35 AM 51.8 °F 33.8 °F 50% 29.95 in 10.0 mi ENE 6.9 mph - N/A   Clear
4:55 AM 51.8 °F 33.8 °F 50% 29.95 in 10.0 mi ENE 6.9 mph - N/A   Clear
5:15 AM 51.8 °F 33.8 °F 50% 29.95 in 10.0 mi ENE 9.2 mph - N/A   Clear
5:35 AM 51.8 °F 33.8 °F 50% 29.95 in 10.0 mi ENE 8.1 mph - N/A   Clear
5:55 AM 51.8 °F 33.8 °F 50% 29.96 in 10.0 mi ENE 4.6 mph - N/A   Clear
6:15 AM 51.8 °F 35.6 °F 54% 29.96 in 10.0 mi East 6.9 mph - N/A   Clear
6:35 AM 51.8 °F 35.6 °F 54% 29.96 in 10.0 mi East 5.8 mph - N/A   Scattered Clouds
6:55 AM 51.8 °F 35.6 °F 54% 29.96 in 10.0 mi ENE 5.8 mph - N/A   Clear
7:15 AM 51.8 °F 35.6 °F 54% 29.95 in 10.0 mi East 5.8 mph - N/A   Scattered Clouds
7:35 AM 51.8 °F 35.6 °F 54% 29.94 in 10.0 mi East 8.1 mph - N/A   Scattered Clouds
7:55 AM 51.8 °F 35.6 °F 54% 29.94 in 10.0 mi East 9.2 mph - N/A   Clear
8:15 AM 51.8 °F 35.6 °F 54% 29.93 in 10.0 mi East 8.1 mph - N/A   Clear
8:35 AM 51.8 °F 35.6 °F 54% 29.92 in 10.0 mi East 9.2 mph - N/A   Clear
8:55 AM 53.6 °F 35.6 °F 51% 29.92 in 10.0 mi ESE 8.1 mph - N/A   Clear
9:15 AM 53.6 °F 35.6 °F 51% 29.93 in 10.0 mi ESE 5.8 mph - N/A   Clear
9:35 AM 55.4 °F 37.4 °F 51% 29.92 in 10.0 mi East 5.8 mph - N/A   Clear
9:55 AM 59.0 °F 37.4 °F 45% 29.91 in 10.0 mi East 10.4 mph - N/A   Clear
10:15 AM 62.6 °F 37.4 °F 39% 29.89 in 10.0 mi ESE 10.4 mph 18.4 mph N/A   Clear
10:35 AM 62.6 °F 41.0 °F 45% 29.89 in 10.0 mi ESE 9.2 mph - N/A   Clear
10:55 AM 62.6 °F 44.6 °F 52% 29.88 in 10.0 mi SE 9.2 mph - N/A   Clear
11:15 AM 64.4 °F 46.4 °F 52% 29.87 in 10.0 mi ESE 10.4 mph - N/A   Mostly Cloudy
11:35 AM 62.6 °F 48.2 °F 59% 29.86 in 10.0 mi SE 9.2 mph - N/A   Overcast
11:55 AM 62.6 °F 50.0 °F 63% 29.85 in 10.0 mi SSE 6.9 mph - N/A   Overcast
12:15 PM 64.4 °F 55.4 °F 73% 29.84 in 10.0 mi SE 9.2 mph - N/A   Overcast
12:35 PM 64.4 °F 57.2 °F 77% 29.82 in 10.0 mi South 10.4 mph - N/A   Overcast
12:55 PM 64.4 °F 59.0 °F 83% 29.81 in 10.0 mi SSE 10.4 mph - N/A   Overcast
1:15 PM 62.6 °F 59.0 °F 88% 29.79 in 7.0 mi South 10.4 mph - N/A   Overcast
1:35 PM 62.6 °F 60.8 °F 94% 29.77 in 3.0 mi SSE 10.4 mph - N/A   Overcast
1:55 PM 62.6 °F 60.8 °F 94% 29.76 in 2.0 mi SSE 10.4 mph - N/A   Overcast
2:15 PM 62.6 °F 60.8 °F 94% 29.74 in 3.0 mi SSE 9.2 mph - N/A   Overcast
2:35 PM 62.6 °F 62.6 °F 100% 29.73 in 2.5 mi SSE 9.2 mph - N/A   Overcast
2:55 PM 62.6 °F 62.6 °F 100% 29.73 in 3.0 mi South 11.5 mph - N/A   Overcast
3:15 PM 62.6 °F 62.6 °F 100% 29.71 in 4.0 mi South 10.4 mph 17.3 mph N/A   Overcast
3:35 PM 62.6 °F 62.6 °F 100% 29.70 in 3.0 mi SSE 13.8 mph - N/A   Overcast
3:55 PM 62.6 °F 62.6 °F 100% 29.69 in 1.5 mi SSE 11.5 mph 18.4 mph N/A   Overcast
4:15 PM 62.6 °F 62.6 °F 100% 29.68 in 1.8 mi SSE 10.4 mph 19.6 mph N/A   Overcast
4:35 PM 62.6 °F 62.6 °F 100% 29.67 in 1.8 mi SSE 11.5 mph 16.1 mph N/A   Overcast
4:55 PM 62.6 °F 62.6 °F 100% 29.67 in 1.8 mi South 11.5 mph 17.3 mph N/A   Overcast
5:15 PM 62.6 °F 62.6 °F 100% 29.66 in 1.8 mi South 10.4 mph 19.6 mph N/A Rain Light Rain
5:35 PM 62.6 °F 62.6 °F 100% 29.66 in 1.5 mi South 12.7 mph 17.3 mph N/A   Light Drizzle
5:55 PM 62.6 °F 62.6 °F 100% 29.65 in 1.8 mi South 11.5 mph 21.9 mph N/A   Light Drizzle
6:15 PM 62.6 °F 62.6 °F 100% 29.65 in 1.8 mi South 13.8 mph - N/A   Overcast
6:35 PM 62.6 °F 62.6 °F 100% 29.65 in 3.0 mi South 11.5 mph 20.7 mph N/A   Overcast
6:55 PM 62.6 °F 62.6 °F 100% 29.66 in 4.0 mi South 10.4 mph - N/A   Overcast
7:15 PM 62.6 °F 62.6 °F 100% 29.66 in 4.0 mi South 8.1 mph - N/A   Overcast
7:35 PM 62.6 °F 62.6 °F 100% 29.67 in 5.0 mi SSW 8.1 mph - N/A   Overcast
7:55 PM 62.6 °F 62.6 °F 100% 29.66 in 5.0 mi South 12.7 mph - N/A   Overcast
8:15 PM 62.6 °F 62.6 °F 100% 29.65 in 5.0 mi South 11.5 mph 17.3 mph N/A   Overcast
8:35 PM 62.6 °F 62.6 °F 100% 29.65 in 5.0 mi South 10.4 mph - N/A   Overcast
8:55 PM 62.6 °F 62.6 °F 100% 29.64 in 5.0 mi South 10.4 mph - N/A   Overcast
9:15 PM 62.6 °F 62.6 °F 100% 29.63 in 5.0 mi South 10.4 mph 16.1 mph N/A   Mostly Cloudy
9:35 PM 62.6 °F 62.6 °F 100% 29.63 in 5.0 mi South 11.5 mph - N/A   Overcast
9:55 PM 62.6 °F 62.6 °F 100% 29.62 in 5.0 mi South 9.2 mph - N/A   Overcast
10:35 PM 62.6 °F 62.6 °F 100% 29.60 in 5.0 mi South 11.5 mph - N/A   Clear
10:55 PM 62.6 °F 62.6 °F 100% 29.59 in 7.0 mi SSE 11.5 mph - N/A   Scattered Clouds
11:15 PM 62.6 °F 62.6 °F 100% 29.58 in 7.0 mi South 8.1 mph - N/A   Mostly Cloudy
11:35 PM 62.6 °F 62.6 °F 100% 29.57 in 7.0 mi South 9.2 mph - N/A   Mostly Cloudy
11:55 PM 62.6 °F 62.6 °F 100% 29.56 in 7.0 mi South 11.5 mph - N/A   Mostly Cloudy